createdAt,value
2018-01-06T00:00:21.509Z,0
2018-01-06T00:00:49.949Z,0
2018-01-06T00:01:18.028Z,0
2018-01-06T00:02:30.167Z,0
2018-01-06T00:06:20.192Z,0
2018-01-06T00:06:48.705Z,0
2018-01-06T00:09:13.829Z,0
2018-01-06T00:10:55.091Z,0
2018-01-06T00:11:28.441Z,0
2018-01-06T00:12:26.872Z,0
2018-01-06T00:12:56.249Z,0
2018-01-06T00:13:25.626Z,0
2018-01-06T00:14:13.375Z,0
2018-01-06T00:14:56.708Z,0
2018-01-06T00:15:24.758Z,0
2018-01-06T00:15:53.606Z,0
2018-01-06T00:16:22.910Z,0
2018-01-06T00:18:18.645Z,0
2018-01-06T00:18:47.388Z,0
2018-01-06T00:19:41.901Z,0
2018-01-06T00:20:38.963Z,0
2018-01-06T00:21:07.042Z,0
2018-01-06T00:21:50.440Z,0
2018-01-06T00:22:34.559Z,0
2018-01-06T00:23:04.233Z,0
2018-01-06T00:26:36.929Z,0
2018-01-06T00:27:05.319Z,0
2018-01-06T00:27:34.206Z,0
2018-01-06T00:28:03.923Z,0
2018-01-06T00:28:31.869Z,0
2018-01-06T00:29:00.487Z,0
2018-01-06T00:30:40.105Z,0
2018-01-06T00:31:52.525Z,0
2018-01-06T00:32:21.875Z,0
2018-01-06T00:32:53.262Z,0
2018-01-06T00:33:21.888Z,0
2018-01-06T00:33:55.807Z,0
2018-01-06T00:34:24.209Z,0
2018-01-06T00:34:52.494Z,0
2018-01-06T00:36:44.254Z,0
2018-01-06T00:37:13.484Z,0
2018-01-06T00:37:42.314Z,0
2018-01-06T00:38:13.401Z,0
2018-01-06T00:38:58.416Z,0
2018-01-06T00:39:40.899Z,0
2018-01-06T00:40:08.932Z,0
2018-01-06T00:40:38.180Z,0
2018-01-06T00:41:07.596Z,0
2018-01-06T00:43:17.713Z,0
2018-01-06T00:43:56.573Z,0
2018-01-06T00:44:25.300Z,0
2018-01-06T00:44:53.369Z,0
2018-01-06T00:46:36.686Z,0
2018-01-06T00:47:05.604Z,0
2018-01-06T00:47:33.691Z,0
2018-01-06T00:48:01.933Z,0
2018-01-06T00:48:30.840Z,0
2018-01-06T00:49:14.424Z,0
2018-01-06T00:49:42.494Z,0
2018-01-06T00:50:12.323Z,0
2018-01-06T00:50:41.136Z,0
2018-01-06T00:53:18.862Z,0
2018-01-06T00:55:14.500Z,0
2018-01-06T00:55:43.754Z,0
2018-01-06T00:56:13.235Z,0
2018-01-06T00:57:25.347Z,0
2018-01-06T00:58:08.926Z,0
2018-01-06T00:59:35.261Z,0
2018-01-06T01:00:46.840Z,0
2018-01-06T01:01:15.644Z,0
2018-01-06T01:01:45.450Z,0
2018-01-06T01:02:14.282Z,0
2018-01-06T01:02:44.025Z,0
2018-01-06T01:03:27.969Z,0
2018-01-06T01:03:56.704Z,0
2018-01-06T01:04:26.012Z,0
2018-01-06T01:06:20.957Z,0
2018-01-06T01:07:33.159Z,0
2018-01-06T01:08:01.806Z,0
2018-01-06T01:08:59.277Z,0
2018-01-06T01:09:28.078Z,0
2018-01-06T01:10:39.662Z,0
2018-01-06T01:11:48.883Z,0
2018-01-06T01:12:17.334Z,0
2018-01-06T01:12:45.822Z,0
2018-01-06T01:15:38.055Z,0
2018-01-06T01:16:07.319Z,0
2018-01-06T01:16:35.285Z,0
2018-01-06T01:17:03.770Z,0
2018-01-06T01:17:32.567Z,0
2018-01-06T01:18:01.257Z,0
2018-01-06T01:19:56.082Z,0
2018-01-06T01:20:24.304Z,0
2018-01-06T01:20:52.711Z,0
2018-01-06T01:21:21.749Z,0
2018-01-06T01:21:50.131Z,0
2018-01-06T01:22:28.462Z,0
2018-01-06T01:23:01.419Z,0
2018-01-06T01:23:30.151Z,0
2018-01-06T01:23:58.849Z,0
2018-01-06T01:24:41.814Z,0
2018-01-06T01:25:09.882Z,0
2018-01-06T01:25:48.201Z,0
2018-01-06T01:26:16.665Z,0
2018-01-06T01:26:45.975Z,0
2018-01-06T01:27:14.940Z,0
2018-01-06T01:29:10.781Z,0
2018-01-06T01:33:38.230Z,0
2018-01-06T01:34:08.283Z,0
2018-01-06T01:34:36.278Z,0
2018-01-06T01:35:04.798Z,0
2018-01-06T01:35:33.641Z,0
2018-01-06T01:37:43.261Z,0
2018-01-06T01:38:13.525Z,0
2018-01-06T01:38:41.877Z,0
2018-01-06T01:39:25.240Z,0
2018-01-06T01:39:53.270Z,0
2018-01-06T01:40:22.375Z,0
2018-01-06T01:40:50.420Z,0
2018-01-06T01:41:20.110Z,0
2018-01-06T01:41:49.726Z,0
2018-01-06T01:42:18.164Z,0
2018-01-06T01:42:46.669Z,0
2018-01-06T01:43:15.123Z,0
2018-01-06T01:43:57.940Z,0
2018-01-06T01:44:26.558Z,0
2018-01-06T01:44:55.039Z,0
2018-01-06T01:45:23.091Z,0
2018-01-06T01:45:52.083Z,0
2018-01-06T01:46:31.116Z,0
2018-01-06T01:46:59.202Z,0
2018-01-06T01:47:27.763Z,0
2018-01-06T01:47:56.501Z,0
2018-01-06T01:48:24.508Z,0
2018-01-06T01:48:54.677Z,0
2018-01-06T01:49:22.725Z,0
2018-01-06T01:49:51.478Z,0
2018-01-06T01:50:19.509Z,0
2018-01-06T01:50:47.549Z,0
2018-01-06T01:51:16.785Z,0
2018-01-06T01:51:46.868Z,0
2018-01-06T01:52:14.943Z,0
2018-01-06T01:52:43.028Z,0
2018-01-06T01:53:12.124Z,0
2018-01-06T01:53:41.702Z,0
2018-01-06T01:54:10.896Z,0
2018-01-06T01:54:39.385Z,0
2018-01-06T01:55:07.862Z,0
2018-01-06T01:55:37.147Z,0
2018-01-06T01:56:06.999Z,0
2018-01-06T01:57:05.649Z,0
2018-01-06T01:57:34.231Z,0
2018-01-06T01:58:02.167Z,0
2018-01-06T01:59:00.355Z,0
2018-01-06T01:59:28.663Z,0
2018-01-06T02:00:26.545Z,0
2018-01-06T02:00:54.975Z,0
2018-01-06T02:02:49.575Z,0
2018-01-06T02:03:46.646Z,0
2018-01-06T02:04:15.556Z,0
2018-01-06T02:04:44.331Z,0
2018-01-06T02:06:24.414Z,0
2018-01-06T02:06:54.158Z,0
2018-01-06T02:07:22.517Z,0
2018-01-06T02:09:17.880Z,0
2018-01-06T02:09:45.888Z,0
2018-01-06T02:10:14.948Z,0
2018-01-06T02:10:43.312Z,0
2018-01-06T02:12:37.886Z,0
2018-01-06T02:13:21.154Z,0
2018-01-06T02:14:05.138Z,0
2018-01-06T02:14:34.318Z,0
2018-01-06T02:15:02.265Z,0
2018-01-06T02:17:02.556Z,0
2018-01-06T02:17:45.121Z,0
2018-01-06T02:18:14.015Z,0
2018-01-06T02:18:42.074Z,0
2018-01-06T02:19:11.999Z,0
2018-01-06T02:19:55.330Z,0
2018-01-06T02:21:20.498Z,0
2018-01-06T02:22:33.311Z,0
2018-01-06T02:24:00.259Z,0
2018-01-06T02:24:29.055Z,0
2018-01-06T02:24:57.908Z,0
2018-01-06T02:25:27.475Z,0
2018-01-06T02:26:26.000Z,0
2018-01-06T02:26:54.182Z,0
2018-01-06T02:27:24.204Z,0
2018-01-06T02:27:52.679Z,0
2018-01-06T02:28:21.488Z,0
2018-01-06T02:30:31.271Z,0
2018-01-06T02:32:43.967Z,0
2018-01-06T02:33:17.868Z,0
2018-01-06T02:34:14.941Z,0
2018-01-06T02:34:43.802Z,0
2018-01-06T02:35:28.074Z,0
2018-01-06T02:35:58.517Z,0
2018-01-06T02:36:26.782Z,0
2018-01-06T02:39:20.775Z,0
2018-01-06T02:40:49.853Z,0
2018-01-06T02:41:18.421Z,0
2018-01-06T02:42:15.496Z,0
2018-01-06T02:43:57.108Z,0
2018-01-06T02:44:25.395Z,0
2018-01-06T02:44:53.868Z,0
2018-01-06T02:45:22.853Z,0
2018-01-06T02:45:51.713Z,0
2018-01-06T02:46:34.286Z,0
2018-01-06T02:47:31.819Z,0
2018-01-06T02:48:00.665Z,0
2018-01-06T02:48:29.160Z,0
2018-01-06T02:48:57.236Z,0
2018-01-06T02:49:25.263Z,0
2018-01-06T02:49:54.108Z,0
2018-01-06T02:50:22.639Z,0
2018-01-06T02:50:51.475Z,0
2018-01-06T02:52:18.248Z,0
2018-01-06T02:54:13.217Z,0
2018-01-06T02:54:41.447Z,0
2018-01-06T02:55:39.577Z,0
2018-01-06T02:57:06.342Z,0
2018-01-06T02:57:34.600Z,0
2018-01-06T02:59:10.102Z,0
2018-01-06T02:59:38.970Z,0
2018-01-06T03:00:07.451Z,0
2018-01-06T03:00:36.772Z,0
2018-01-06T03:06:23.929Z,0
2018-01-06T03:06:53.569Z,0
2018-01-06T03:07:23.230Z,0
2018-01-06T03:07:52.537Z,0
2018-01-06T03:08:20.562Z,0
2018-01-06T03:08:48.626Z,0
2018-01-06T03:12:39.950Z,0
2018-01-06T03:13:23.289Z,0
2018-01-06T03:13:52.272Z,0
2018-01-06T03:14:20.845Z,0
2018-01-06T03:14:49.933Z,0
2018-01-06T03:15:17.954Z,0
2018-01-06T03:17:13.089Z,0
2018-01-06T03:17:41.055Z,0
2018-01-06T03:18:09.074Z,0
2018-01-06T03:18:37.368Z,0
2018-01-06T03:19:05.893Z,0
2018-01-06T03:19:35.129Z,0
2018-01-06T03:20:03.889Z,0
2018-01-06T03:20:34.400Z,0
2018-01-06T03:21:03.322Z,0
2018-01-06T03:21:32.743Z,0
2018-01-06T03:22:32.900Z,0
2018-01-06T03:23:03.249Z,0
2018-01-06T03:24:57.964Z,0
2018-01-06T03:25:26.717Z,0
2018-01-06T03:25:55.170Z,0
2018-01-06T03:26:23.136Z,0
2018-01-06T03:27:34.756Z,0
2018-01-06T03:28:03.378Z,0
2018-01-06T03:29:30.151Z,0
2018-01-06T03:30:57.056Z,0
2018-01-06T03:31:25.642Z,0
2018-01-06T03:32:09.403Z,0
2018-01-06T03:32:48.499Z,0
2018-01-06T03:33:31.417Z,0
2018-01-06T03:34:02.420Z,0
2018-01-06T03:35:29.362Z,0
2018-01-06T03:36:12.742Z,0
2018-01-06T03:36:41.554Z,0
2018-01-06T03:37:42.463Z,0
2018-01-06T03:38:55.789Z,0
2018-01-06T03:39:25.072Z,0
2018-01-06T03:39:53.975Z,0
2018-01-06T03:41:03.839Z,0
2018-01-06T03:43:55.088Z,0
2018-01-06T03:44:39.699Z,0
2018-01-06T03:45:09.547Z,0
2018-01-06T03:45:38.799Z,0
2018-01-06T03:46:08.003Z,0
2018-01-06T03:46:36.573Z,0
2018-01-06T03:48:17.295Z,0
2018-01-06T03:48:46.679Z,0
2018-01-06T03:49:14.696Z,0
2018-01-06T03:49:43.517Z,0
2018-01-06T03:50:11.558Z,0
2018-01-06T03:50:40.907Z,0
2018-01-06T03:52:50.423Z,0
2018-01-06T03:53:33.417Z,0
2018-01-06T03:54:59.462Z,0
2018-01-06T03:55:56.559Z,0
2018-01-06T03:56:25.245Z,0
2018-01-06T03:57:08.602Z,0
2018-01-06T03:57:37.471Z,0
2018-01-06T03:58:06.046Z,0
2018-01-06T03:59:33.170Z,0
2018-01-06T04:00:47.783Z,0
2018-01-06T04:01:31.295Z,0
2018-01-06T04:02:03.008Z,0
2018-01-06T04:03:16.808Z,0
2018-01-06T04:03:59.720Z,0
2018-01-06T04:04:27.748Z,0
2018-01-06T04:04:56.010Z,0
2018-01-06T04:07:25.105Z,0
2018-01-06T04:09:01.137Z,0
2018-01-06T04:09:29.207Z,0
2018-01-06T04:11:29.933Z,0
2018-01-06T04:13:49.570Z,0
2018-01-06T04:14:33.968Z,0
2018-01-06T04:15:46.574Z,0
2018-01-06T04:16:15.506Z,0
2018-01-06T04:16:44.785Z,0
2018-01-06T04:17:12.976Z,0
2018-01-06T04:18:38.877Z,0
2018-01-06T04:19:13.746Z,0
2018-01-06T04:19:42.885Z,0
2018-01-06T04:20:25.985Z,0
2018-01-06T04:21:08.809Z,0
2018-01-06T04:21:37.269Z,0
2018-01-06T04:22:06.133Z,0
2018-01-06T04:23:35.704Z,0
2018-01-06T04:24:03.756Z,0
2018-01-06T04:24:31.801Z,0
2018-01-06T04:25:15.312Z,0
2018-01-06T04:25:43.850Z,0
2018-01-06T04:26:12.714Z,0
2018-01-06T04:26:41.171Z,0
2018-01-06T04:29:06.095Z,0
2018-01-06T04:29:34.984Z,0
2018-01-06T04:32:14.356Z,0
2018-01-06T04:32:42.830Z,0
2018-01-06T04:33:54.322Z,0
2018-01-06T04:34:22.411Z,0
2018-01-06T04:34:51.635Z,0
2018-01-06T04:35:34.241Z,0
2018-01-06T04:36:02.513Z,0
2018-01-06T04:36:31.364Z,0
2018-01-06T04:37:42.208Z,0
2018-01-06T04:38:24.775Z,0
2018-01-06T04:39:05.327Z,0
2018-01-06T04:39:48.921Z,0
2018-01-06T04:40:17.350Z,0
2018-01-06T04:40:46.233Z,0
2018-01-06T04:42:11.758Z,0
2018-01-06T04:42:54.668Z,0
2018-01-06T04:43:23.268Z,0
2018-01-06T04:44:42.357Z,0
2018-01-06T04:45:10.555Z,0
2018-01-06T04:47:01.712Z,0
2018-01-06T04:47:58.960Z,0
2018-01-06T04:48:57.993Z,0
2018-01-06T04:49:40.780Z,0
2018-01-06T04:50:09.345Z,0
2018-01-06T04:51:49.058Z,0
2018-01-06T04:52:32.039Z,0
2018-01-06T04:55:23.602Z,0
2018-01-06T04:55:52.893Z,0
2018-01-06T04:56:35.414Z,0
2018-01-06T04:57:18.801Z,0
2018-01-06T04:59:00.501Z,0
2018-01-06T04:59:29.310Z,0
2018-01-06T04:59:58.759Z,0
2018-01-06T05:01:31.952Z,0
2018-01-06T05:02:58.060Z,0
2018-01-06T05:03:42.518Z,0
2018-01-06T05:04:25.678Z,0
2018-01-06T05:05:09.195Z,0
2018-01-06T05:05:52.936Z,0
2018-01-06T05:06:26.816Z,0
2018-01-06T05:07:25.474Z,0
2018-01-06T05:08:08.595Z,0
2018-01-06T05:09:06.892Z,0
2018-01-06T05:09:50.205Z,0
2018-01-06T05:10:18.640Z,0
2018-01-06T05:10:47.471Z,0
2018-01-06T05:11:15.929Z,0
2018-01-06T05:12:12.680Z,0
2018-01-06T05:13:10.556Z,0
2018-01-06T05:13:53.851Z,0
2018-01-06T05:14:24.370Z,0
2018-01-06T05:14:52.442Z,0
2018-01-06T05:16:57.048Z,0
2018-01-06T05:17:25.080Z,0
2018-01-06T05:17:54.922Z,0
2018-01-06T05:18:28.651Z,0
2018-01-06T05:18:57.235Z,0
2018-01-06T05:20:10.189Z,0
2018-01-06T05:21:08.099Z,0
2018-01-06T05:21:51.482Z,0
2018-01-06T05:23:32.070Z,0
2018-01-06T05:24:00.691Z,0
2018-01-06T05:24:44.836Z,0
2018-01-06T05:25:13.505Z,0
2018-01-06T05:25:42.876Z,0
2018-01-06T05:26:11.445Z,0
2018-01-06T05:27:53.085Z,0
2018-01-06T05:28:22.503Z,0
2018-01-06T05:28:53.889Z,0
2018-01-06T05:29:29.703Z,0
2018-01-06T05:30:00.583Z,0
2018-01-06T05:30:29.017Z,0
2018-01-06T05:31:40.745Z,0
2018-01-06T05:32:10.021Z,0
2018-01-06T05:32:38.872Z,0
2018-01-06T05:33:21.089Z,0
2018-01-06T05:34:05.152Z,0
2018-01-06T05:34:45.989Z,0
2018-01-06T05:35:28.895Z,0
2018-01-06T05:36:55.923Z,0
2018-01-06T05:38:07.506Z,0
2018-01-06T05:38:53.889Z,0
2018-01-06T05:39:21.931Z,0
2018-01-06T05:39:50.545Z,0
2018-01-06T05:40:18.961Z,0
2018-01-06T05:41:31.299Z,0
2018-01-06T05:42:13.849Z,0
2018-01-06T05:42:42.885Z,0
2018-01-06T05:44:09.007Z,0
2018-01-06T05:44:38.811Z,0
2018-01-06T05:45:36.128Z,0
2018-01-06T05:47:32.360Z,0
2018-01-06T05:48:00.799Z,0
2018-01-06T05:48:28.744Z,0
2018-01-06T05:49:12.109Z,0
2018-01-06T05:49:48.141Z,0
2018-01-06T05:50:16.986Z,0
2018-01-06T05:50:46.920Z,0
2018-01-06T05:51:16.720Z,0
2018-01-06T05:52:01.039Z,0
2018-01-06T05:52:45.998Z,0
2018-01-06T05:54:42.501Z,0
2018-01-06T05:55:10.565Z,0
2018-01-06T05:55:39.012Z,0
2018-01-06T05:56:07.056Z,0
2018-01-06T05:56:42.460Z,0
2018-01-06T05:57:11.553Z,0
2018-01-06T05:57:40.381Z,0
2018-01-06T05:58:08.645Z,0
2018-01-06T05:58:37.225Z,0
2018-01-06T05:59:55.828Z,0
2018-01-06T06:00:25.046Z,0
2018-01-06T06:03:48.413Z,0
2018-01-06T06:04:17.288Z,0
2018-01-06T06:04:45.836Z,0
2018-01-06T06:05:13.852Z,0
2018-01-06T06:06:55.294Z,0
2018-01-06T06:07:37.847Z,0
2018-01-06T06:08:06.303Z,0
2018-01-06T06:08:35.025Z,0
2018-01-06T06:11:59.308Z,0
2018-01-06T06:12:28.099Z,0
2018-01-06T06:12:58.321Z,0
2018-01-06T06:13:58.175Z,0
2018-01-06T06:15:26.669Z,0
2018-01-06T06:15:54.729Z,0
2018-01-06T06:17:44.880Z,0
2018-01-06T06:18:14.614Z,0
2018-01-06T06:18:42.646Z,0
2018-01-06T06:19:25.192Z,0
2018-01-06T06:19:53.730Z,0
2018-01-06T06:21:22.265Z,0
2018-01-06T06:21:50.639Z,0
2018-01-06T06:22:19.352Z,0
2018-01-06T06:23:17.236Z,0
2018-01-06T06:23:46.255Z,0
2018-01-06T06:24:14.327Z,0
2018-01-06T06:24:43.618Z,0
2018-01-06T06:25:12.445Z,0
2018-01-06T06:26:37.994Z,0
2018-01-06T06:27:19.188Z,0
2018-01-06T06:28:03.416Z,0
2018-01-06T06:28:47.424Z,0
2018-01-06T06:29:16.158Z,0
2018-01-06T06:29:59.050Z,0
2018-01-06T06:30:27.607Z,0
2018-01-06T06:30:55.896Z,0
2018-01-06T06:31:39.774Z,0
2018-01-06T06:32:23.030Z,0
2018-01-06T06:32:51.881Z,0
2018-01-06T06:33:34.859Z,0
2018-01-06T06:34:03.318Z,0
2018-01-06T06:34:32.726Z,0
2018-01-06T06:35:03.475Z,0
2018-01-06T06:36:05.641Z,0
2018-01-06T06:36:35.243Z,0
2018-01-06T06:37:26.159Z,0
2018-01-06T06:38:09.443Z,0
2018-01-06T06:38:53.184Z,0
2018-01-06T06:40:34.461Z,0
2018-01-06T06:41:08.144Z,0
2018-01-06T06:41:51.728Z,0
2018-01-06T06:42:35.097Z,0
2018-01-06T06:43:03.547Z,0
2018-01-06T06:43:47.822Z,0
2018-01-06T06:44:32.927Z,0
2018-01-06T06:46:47.375Z,0
2018-01-06T06:50:24.596Z,0
2018-01-06T06:51:07.737Z,0
2018-01-06T06:51:50.673Z,0
2018-01-06T06:53:46.468Z,0
2018-01-06T06:54:15.026Z,0
2018-01-06T06:54:43.396Z,0
2018-01-06T06:55:11.870Z,0
2018-01-06T06:55:56.719Z,0
2018-01-06T06:56:25.552Z,0
2018-01-06T06:57:10.521Z,0
2018-01-06T06:58:23.442Z,0
2018-01-06T06:59:21.674Z,0
2018-01-06T07:00:34.066Z,0
2018-01-06T07:02:35.772Z,0
2018-01-06T07:03:18.959Z,0
2018-01-06T07:05:13.904Z,0
2018-01-06T07:05:42.510Z,0
2018-01-06T07:06:12.507Z,0
2018-01-06T07:06:41.355Z,0
2018-01-06T07:07:25.146Z,0
2018-01-06T07:07:53.196Z,0
2018-01-06T07:08:21.832Z,0
2018-01-06T07:08:49.920Z,0
2018-01-06T07:09:18.521Z,0
2018-01-06T07:10:22.636Z,0
2018-01-06T07:10:50.697Z,0
2018-01-06T07:12:16.249Z,0
2018-01-06T07:12:44.279Z,0
2018-01-06T07:13:56.302Z,0
2018-01-06T07:14:40.172Z,0
2018-01-06T07:15:29.902Z,0
2018-01-06T07:16:13.546Z,0
2018-01-06T07:16:42.246Z,0
2018-01-06T07:17:26.802Z,0
2018-01-06T07:17:54.833Z,0
2018-01-06T07:18:23.730Z,0
2018-01-06T07:18:52.182Z,0
2018-01-06T07:19:35.179Z,0
2018-01-06T07:20:03.816Z,0
2018-01-06T07:20:32.465Z,0
2018-01-06T07:21:01.400Z,0
2018-01-06T07:21:30.323Z,0
2018-01-06T07:21:59.376Z,0
2018-01-06T07:22:28.587Z,0
2018-01-06T07:22:56.539Z,0
2018-01-06T07:23:25.370Z,0
2018-01-06T07:23:54.437Z,0
2018-01-06T07:24:37.665Z,0
2018-01-06T07:25:05.701Z,0
2018-01-06T07:26:36.676Z,0
2018-01-06T07:27:20.024Z,0
2018-01-06T07:29:15.329Z,0
2018-01-06T07:30:47.175Z,0
2018-01-06T07:32:00.010Z,0
2018-01-06T07:32:30.259Z,0
2018-01-06T07:33:00.128Z,0
2018-01-06T07:34:27.723Z,0
2018-01-06T07:34:58.574Z,0
2018-01-06T07:35:55.567Z,0
2018-01-06T07:36:38.872Z,0
2018-01-06T07:37:23.920Z,0
2018-01-06T07:38:07.641Z,0
2018-01-06T07:38:36.090Z,0
2018-01-06T07:39:47.693Z,0
2018-01-06T07:40:30.941Z,0
2018-01-06T07:42:26.404Z,0
2018-01-06T07:42:54.878Z,0
2018-01-06T07:43:23.533Z,0
2018-01-06T07:43:52.023Z,0
2018-01-06T07:45:06.093Z,0
2018-01-06T07:45:34.556Z,0
2018-01-06T07:46:02.659Z,0
2018-01-06T07:46:31.614Z,0
2018-01-06T07:47:14.154Z,0
2018-01-06T07:47:45.260Z,0
2018-01-06T07:48:58.871Z,0
2018-01-06T07:51:23.344Z,0
2018-01-06T07:51:51.866Z,0
2018-01-06T07:52:19.914Z,0
2018-01-06T07:52:47.981Z,0
2018-01-06T07:53:15.970Z,0
2018-01-06T07:53:44.451Z,0
2018-01-06T07:54:27.428Z,0
2018-01-06T07:55:12.282Z,0
2018-01-06T07:55:55.875Z,0
2018-01-06T07:57:38.417Z,0
2018-01-06T07:58:36.342Z,0
2018-01-06T08:00:03.117Z,0
2018-01-06T08:00:31.153Z,0
2018-01-06T08:01:00.063Z,0
2018-01-06T08:01:28.897Z,0
2018-01-06T08:01:56.977Z,0
2018-01-06T08:03:13.528Z,0
2018-01-06T08:03:56.888Z,0
2018-01-06T08:04:40.608Z,0
2018-01-06T08:05:09.502Z,0
2018-01-06T08:05:37.881Z,0
2018-01-06T08:06:35.521Z,0
2018-01-06T08:08:31.702Z,0
2018-01-06T08:09:00.111Z,0
2018-01-06T08:12:36.488Z,0
2018-01-06T08:13:33.809Z,0
2018-01-06T08:14:47.606Z,0
2018-01-06T08:15:32.466Z,0
2018-01-06T08:17:19.182Z,0
2018-01-06T08:17:47.119Z,0
2018-01-06T08:18:15.410Z,0
2018-01-06T08:18:43.379Z,0
2018-01-06T08:20:38.706Z,0
2018-01-06T08:21:07.807Z,0
2018-01-06T08:21:35.853Z,0
2018-01-06T08:22:03.901Z,0
2018-01-06T08:22:33.028Z,0
2018-01-06T08:24:43.148Z,5
2018-01-06T08:25:11.193Z,10
2018-01-06T08:27:08.493Z,10
2018-01-06T08:29:21.183Z,15
2018-01-06T08:30:34.241Z,15
2018-01-06T08:31:02.807Z,15
2018-01-06T08:31:48.080Z,15
2018-01-06T08:33:28.961Z,15
2018-01-06T08:34:12.765Z,20
2018-01-06T08:35:39.563Z,20
2018-01-06T08:39:01.579Z,20
2018-01-06T08:39:44.565Z,20
2018-01-06T08:40:43.919Z,25
2018-01-06T08:41:42.041Z,25
2018-01-06T08:43:37.652Z,25
2018-01-06T08:48:09.355Z,35
2018-01-06T08:48:52.927Z,35
2018-01-06T08:50:00.523Z,35
2018-01-06T08:50:28.572Z,35
2018-01-06T08:53:08.135Z,40
2018-01-06T08:53:52.543Z,45
2018-01-06T08:54:21.111Z,45
2018-01-06T08:57:00.364Z,50
2018-01-06T08:58:12.631Z,55
2018-01-06T08:58:57.216Z,55
2018-01-06T09:03:34.291Z,70
2018-01-06T09:04:31.956Z,70
2018-01-06T09:04:59.971Z,75
2018-01-06T09:05:28.476Z,75
2018-01-06T09:05:56.916Z,80
2018-01-06T09:06:25.863Z,80
2018-01-06T09:06:57.732Z,85
2018-01-06T09:07:40.941Z,85
2018-01-06T09:08:25.093Z,90
2018-01-06T09:09:08.616Z,95
2018-01-06T09:09:52.655Z,95
2018-01-06T09:10:35.760Z,100
2018-01-06T09:11:46.238Z,105
2018-01-06T09:13:27.586Z,120
2018-01-06T09:13:57.938Z,120
2018-01-06T09:14:47.170Z,125
2018-01-06T09:15:30.242Z,125
2018-01-06T09:16:42.076Z,135
2018-01-06T09:17:25.626Z,140
2018-01-06T09:18:23.627Z,150
2018-01-06T09:19:06.956Z,155
2018-01-06T09:19:49.506Z,165
2018-01-06T09:21:22.484Z,180
2018-01-06T09:21:52.211Z,185
2018-01-06T09:22:21.123Z,185
2018-01-06T09:23:08.359Z,190
2018-01-06T09:23:50.933Z,200
2018-01-06T09:24:33.922Z,210
2018-01-06T09:27:04.272Z,230
2018-01-06T09:28:45.831Z,245
2018-01-06T09:29:13.874Z,245
2018-01-06T09:29:42.397Z,250
2018-01-06T09:30:10.816Z,255
2018-01-06T09:30:40.933Z,260
2018-01-06T09:31:09.692Z,260
2018-01-06T09:31:38.756Z,260
2018-01-06T09:32:21.344Z,260
2018-01-06T09:32:50.927Z,265
2018-01-06T09:33:33.509Z,265
2018-01-06T09:35:16.504Z,270
2018-01-06T09:35:45.683Z,270
2018-01-06T09:37:28.250Z,285
2018-01-06T09:37:57.538Z,290
2018-01-06T09:39:10.453Z,300
2018-01-06T09:40:08.316Z,305
2018-01-06T09:40:36.911Z,310
2018-01-06T09:41:05.337Z,315
2018-01-06T09:41:34.426Z,325
2018-01-06T09:42:48.759Z,325
2018-01-06T09:47:23.389Z,300
2018-01-06T09:48:22.305Z,285
2018-01-06T09:48:51.151Z,280
2018-01-06T09:49:20.584Z,285
2018-01-06T09:49:48.991Z,355
2018-01-06T09:50:20.960Z,300
2018-01-06T09:51:46.049Z,285
2018-01-06T09:52:14.543Z,295
2018-01-06T09:53:27.359Z,280
2018-01-06T09:54:10.229Z,270
2018-01-06T09:54:53.068Z,265
2018-01-06T09:55:26.282Z,265
2018-01-06T09:56:08.755Z,255
2018-01-06T09:56:39.013Z,255
2018-01-06T09:57:07.109Z,255
2018-01-06T09:57:35.580Z,255
2018-01-06T09:58:18.334Z,260
2018-01-06T09:58:47.284Z,265
2018-01-06T09:59:16.589Z,270
2018-01-06T09:59:59.381Z,285
2018-01-06T10:01:52.441Z,295
2018-01-06T10:05:16.829Z,295
2018-01-06T10:05:45.107Z,290
2018-01-06T10:06:42.646Z,280
2018-01-06T10:07:40.460Z,285
2018-01-06T10:08:23.417Z,300
2018-01-06T10:09:35.114Z,310
2018-01-06T10:10:03.941Z,310
2018-01-06T10:10:32.020Z,315
2018-01-06T10:11:00.490Z,320
2018-01-06T10:11:28.952Z,325
2018-01-06T10:11:57.503Z,335
2018-01-06T10:12:26.288Z,350
2018-01-06T10:12:54.765Z,345
2018-01-06T10:13:22.796Z,350
2018-01-06T10:14:06.149Z,350
2018-01-06T10:14:34.110Z,355
2018-01-06T10:15:03.347Z,355
2018-01-06T10:15:32.177Z,355
2018-01-06T10:16:01.450Z,360
2018-01-06T10:16:29.530Z,370
2018-01-06T10:16:58.350Z,380
2018-01-06T10:18:25.075Z,395
2018-01-06T10:18:58.060Z,400
2018-01-06T10:19:26.104Z,405
2018-01-06T10:19:54.144Z,400
2018-01-06T10:20:23.207Z,400
2018-01-06T10:20:52.024Z,395
2018-01-06T10:21:20.074Z,395
2018-01-06T10:21:48.549Z,390
2018-01-06T10:22:16.588Z,390
2018-01-06T10:22:45.051Z,395
2018-01-06T10:23:13.057Z,390
2018-01-06T10:23:55.647Z,385
2018-01-06T10:24:24.425Z,385
2018-01-06T10:25:22.881Z,375
2018-01-06T10:26:50.880Z,355
2018-01-06T10:27:48.315Z,350
2018-01-06T10:28:17.144Z,350
2018-01-06T10:28:45.394Z,360
2018-01-06T10:29:15.803Z,360
2018-01-06T10:29:44.072Z,375
2018-01-06T10:30:27.076Z,390
2018-01-06T10:31:39.263Z,405
2018-01-06T10:32:22.613Z,415
2018-01-06T10:32:53.063Z,420
2018-01-06T10:33:36.381Z,420
2018-01-06T10:34:34.251Z,425
2018-01-06T10:35:04.207Z,430
2018-01-06T10:36:29.982Z,450
2018-01-06T10:37:12.772Z,455
2018-01-06T10:38:52.938Z,445
2018-01-06T10:39:20.982Z,435
2018-01-06T10:40:04.296Z,425
2018-01-06T10:40:47.784Z,420
2018-01-06T10:41:32.778Z,425
2018-01-06T10:42:44.969Z,425
2018-01-06T10:43:27.559Z,415
2018-01-06T10:43:56.604Z,410
2018-01-06T10:44:26.263Z,410
2018-01-06T10:44:56.401Z,405
2018-01-06T10:45:24.335Z,410
2018-01-06T10:45:52.817Z,420
2018-01-06T10:46:20.907Z,425
2018-01-06T10:46:50.404Z,425
2018-01-06T10:47:33.689Z,420
2018-01-06T10:48:02.930Z,425
2018-01-06T10:48:32.195Z,430
2018-01-06T10:49:30.048Z,405
2018-01-06T10:52:38.220Z,320
2018-01-06T10:53:20.782Z,315
2018-01-06T10:55:30.157Z,365
2018-01-06T10:56:27.228Z,370
2018-01-06T10:57:09.847Z,380
2018-01-06T10:57:38.120Z,395
2018-01-06T10:58:06.954Z,415
2018-01-06T10:58:35.023Z,425
2018-01-06T10:59:04.236Z,430
2018-01-06T10:59:32.994Z,420
2018-01-06T11:00:07.387Z,410
2018-01-06T11:00:36.617Z,405
2018-01-06T11:01:20.357Z,390
2018-01-06T11:02:04.115Z,385
2018-01-06T11:03:40.243Z,405
2018-01-06T11:04:09.060Z,410
2018-01-06T11:04:51.531Z,435
2018-01-06T11:07:46.409Z,470
2018-01-06T11:08:43.925Z,485
2018-01-06T11:09:41.725Z,505
2018-01-06T11:10:10.545Z,515
2018-01-06T11:10:56.245Z,530
2018-01-06T11:11:35.780Z,575
2018-01-06T11:12:04.449Z,610
2018-01-06T11:12:33.304Z,645
2018-01-06T11:13:01.361Z,680
2018-01-06T11:13:45.429Z,725
2018-01-06T11:14:14.378Z,745
2018-01-06T11:15:11.452Z,780
2018-01-06T11:15:39.935Z,785
2018-01-06T11:17:34.861Z,795
2018-01-06T11:18:02.918Z,800
2018-01-06T11:18:36.092Z,790
2018-01-06T11:19:20.204Z,780
2018-01-06T11:20:17.201Z,765
2018-01-06T11:21:00.763Z,745
2018-01-06T11:21:43.686Z,725
2018-01-06T11:22:12.554Z,715
2018-01-06T11:25:35.213Z,685
2018-01-06T11:26:04.575Z,665
2018-01-06T11:27:16.864Z,655
2018-01-06T11:27:45.798Z,675
2018-01-06T11:28:14.094Z,705
2018-01-06T11:28:42.306Z,730
2018-01-06T11:29:10.736Z,740
2018-01-06T11:30:22.467Z,770
2018-01-06T11:30:51.009Z,775
2018-01-06T11:31:19.528Z,810
2018-01-06T11:31:47.982Z,795
2018-01-06T11:32:31.390Z,820
2018-01-06T11:33:00.163Z,835
2018-01-06T11:33:28.532Z,935
2018-01-06T11:33:56.997Z,840
2018-01-06T11:34:25.266Z,840
2018-01-06T11:34:54.104Z,835
2018-01-06T11:35:23.122Z,805
2018-01-06T11:37:05.634Z,820
2018-01-06T11:37:49.622Z,800
2018-01-06T11:38:19.540Z,805
2018-01-06T11:38:49.514Z,805
2018-01-06T11:40:29.094Z,795
2018-01-06T11:40:57.925Z,805
2018-01-06T11:41:25.988Z,835
2018-01-06T11:41:55.272Z,835
2018-01-06T11:42:24.181Z,820
2018-01-06T11:42:53.264Z,795
2018-01-06T11:43:50.345Z,760
2018-01-06T11:44:18.309Z,730
2018-01-06T11:44:46.575Z,715
2018-01-06T11:45:14.651Z,685
2018-01-06T11:46:54.386Z,660
2018-01-06T11:47:37.807Z,620
2018-01-06T11:48:06.222Z,590
2018-01-06T11:48:50.020Z,590
2018-01-06T11:50:45.613Z,645
2018-01-06T11:51:28.215Z,665
2018-01-06T11:52:11.810Z,680
2018-01-06T11:52:42.947Z,660
2018-01-06T11:54:54.052Z,545
2018-01-06T11:55:54.441Z,550
2018-01-06T11:56:37.829Z,595
2018-01-06T11:57:06.226Z,635
2018-01-06T11:57:34.247Z,670
2018-01-06T11:58:02.530Z,720
2018-01-06T11:58:37.176Z,780
2018-01-06T12:01:16.348Z,910
2018-01-06T12:03:40.043Z,920
2018-01-06T12:04:08.434Z,910
2018-01-06T12:04:36.888Z,895
2018-01-06T12:05:05.494Z,890
2018-01-06T12:05:48.468Z,900
2018-01-06T12:06:17.639Z,920
2018-01-06T12:06:45.648Z,925
2018-01-06T12:07:13.568Z,940
2018-01-06T12:07:43.373Z,945
2018-01-06T12:09:31.782Z,935
2018-01-06T12:10:00.072Z,930
2018-01-06T12:10:28.900Z,920
2018-01-06T12:11:26.816Z,910
2018-01-06T12:12:11.461Z,910
2018-01-06T12:12:39.898Z,935
2018-01-06T12:13:22.443Z,925